Time;durP1;ratioP1;P1;durP2;ratioP2;P2;SDS_P1;SDS_P2;PMS_P1;PMS_P2;Temp;Humidity;BMP_temperature;BMP_pressure;BME280_temperature;BME280_humidity;BME280_pressure;Samples;Min_cycle;Max_cycle;Signal;HPM_P1;HPM_P2
2023/07/18 00:01:13;;;;;;;0.30;0.17;;;22.30;64.00;;;;;;5029252;28;20049;-76
2023/07/18 00:03:39;;;;;;;0.20;0.20;;;22.40;64.10;;;;;;5030963;28;20101;-76
2023/07/18 00:06:05;;;;;;;0.30;0.30;;;22.30;63.90;;;;;;5032830;28;20138;-76
2023/07/18 00:08:30;;;;;;;1.05;0.20;;;22.30;64.00;;;;;;5036500;28;20145;-76
2023/07/18 00:10:56;;;;;;;0.20;0.20;;;22.30;64.10;;;;;;5017033;28;20038;-76
2023/07/18 00:13:22;;;;;;;0.20;0.20;;;22.30;64.00;;;;;;5039076;28;20052;-76
2023/07/18 00:15:47;;;;;;;0.20;0.20;;;22.30;63.90;;;;;;5031234;28;20037;-76
2023/07/18 00:18:14;;;;;;;0.10;0.10;;;22.30;64.10;;;;;;5035738;28;20533;-76
2023/07/18 00:20:40;;;;;;;0.30;0.30;;;22.30;64.00;;;;;;5039339;28;20038;-76
2023/07/18 00:23:09;;;;;;;0.30;0.30;;;22.30;64.00;;;;;;5034986;28;20052;-76
2023/07/18 00:25:35;;;;;;;0.10;0.10;;;22.30;64.10;;;;;;5042383;28;20029;-76
2023/07/18 00:28:00;;;;;;;0.25;0.20;;;22.30;64.00;;;;;;5035631;28;20244;-76
2023/07/18 00:30:26;;;;;;;0.17;0.17;;;22.30;63.90;;;;;;5032470;28;20064;-76
2023/07/18 00:32:52;;;;;;;0.15;0.10;;;22.30;64.00;;;;;;5042586;28;20055;-76
2023/07/18 00:35:17;;;;;;;0.38;0.20;;;22.30;64.00;;;;;;5052295;28;20498;-76
2023/07/18 00:37:43;;;;;;;0.20;0.17;;;22.30;64.10;;;;;;5044622;28;20033;-76
2023/07/18 00:40:10;;;;;;;0.20;0.20;;;22.30;64.00;;;;;;5039583;28;20495;-76
2023/07/18 00:42:45;;;;;;;0.20;0.20;;;22.30;64.00;;;;;;5039719;28;20120;-76
2023/07/18 00:45:11;;;;;;;0.32;0.25;;;22.30;63.90;;;;;;5032698;28;20057;-76
2023/07/18 00:47:42;;;;;;;0.20;0.20;;;22.30;64.00;;;;;;5036342;28;20127;-76
2023/07/18 00:50:14;;;;;;;0.20;0.20;;;22.30;63.80;;;;;;5038261;28;20053;-76
2023/07/18 00:52:47;;;;;;;0.10;0.10;;;22.30;63.80;;;;;;5036348;28;20090;-76
2023/07/18 00:55:13;;;;;;;0.20;0.20;;;22.30;64.00;;;;;;5032425;28;20136;-76
2023/07/18 00:57:40;;;;;;;0.30;0.30;;;22.30;63.90;;;;;;5038990;28;20045;-76
2023/07/18 01:00:12;;;;;;;0.15;0.15;;;22.20;63.90;;;;;;5030447;28;20073;-76
2023/07/18 01:02:39;;;;;;;0.13;0.13;;;22.30;63.90;;;;;;5035684;28;20041;-76
2023/07/18 01:05:06;;;;;;;0.22;0.22;;;22.30;64.00;;;;;;5036240;28;20041;-76
2023/07/18 01:07:33;;;;;;;0.20;0.20;;;22.30;63.90;;;;;;5039213;28;20112;-76
2023/07/18 01:10:13;;;;;;;0.20;0.20;;;22.30;63.90;;;;;;5056414;28;20465;-76
2023/07/18 01:12:39;;;;;;;0.20;0.20;;;22.30;63.80;;;;;;5035907;28;20072;-76
2023/07/18 01:15:05;;;;;;;0.28;0.13;;;22.20;63.80;;;;;;5034798;28;20077;-77
2023/07/18 01:17:31;;;;;;;0.13;0.13;;;22.30;64.00;;;;;;5031097;28;20128;-77
2023/07/18 01:19:56;;;;;;;0.28;0.20;;;22.20;63.90;;;;;;5036497;28;20138;-77
2023/07/18 01:22:22;;;;;;;0.15;0.10;;;22.20;63.80;;;;;;5073355;28;20498;-77
2023/07/18 01:24:48;;;;;;;0.15;0.15;;;22.30;64.00;;;;;;5049618;28;20043;-77
2023/07/18 01:27:13;;;;;;;0.22;0.20;;;22.30;64.60;;;;;;5047317;28;20041;-77
2023/07/18 01:29:39;;;;;;;0.20;0.20;;;22.30;63.80;;;;;;5035033;28;20033;-76
2023/07/18 01:32:05;;;;;;;0.10;0.10;;;22.20;63.70;;;;;;5037318;28;20418;-76
2023/07/18 01:34:31;;;;;;;0.13;0.13;;;22.30;63.80;;;;;;5037873;28;20133;-76
2023/07/18 01:36:57;;;;;;;0.17;0.17;;;22.20;63.70;;;;;;5034261;28;20140;-76
2023/07/18 01:39:23;;;;;;;0.15;0.15;;;22.20;63.70;;;;;;5030961;28;20104;-76
2023/07/18 01:41:49;;;;;;;0.20;0.20;;;22.30;63.80;;;;;;5035371;28;20029;-76
2023/07/18 01:44:15;;;;;;;0.10;0.10;;;22.20;63.80;;;;;;5030281;28;20116;-76
2023/07/18 01:46:40;;;;;;;0.10;0.10;;;22.20;63.70;;;;;;5041731;28;20176;-76
2023/07/18 01:49:06;;;;;;;0.10;0.10;;;22.20;63.70;;;;;;5034977;28;20597;-76
2023/07/18 01:51:32;;;;;;;0.20;0.15;;;22.30;63.80;;;;;;5033781;28;20033;-76
2023/07/18 01:53:57;;;;;;;0.20;0.20;;;22.30;63.80;;;;;;5036709;28;20088;-76
2023/07/18 01:56:23;;;;;;;0.10;0.10;;;22.30;63.80;;;;;;5037946;28;20064;-76
2023/07/18 01:58:49;;;;;;;0.17;0.17;;;22.20;63.70;;;;;;5035331;28;20029;-76
2023/07/18 02:01:15;;;;;;;0.20;0.20;;;22.20;63.70;;;;;;5035459;28;20049;-76
2023/07/18 02:03:40;;;;;;;0.10;0.10;;;22.20;63.80;;;;;;5037258;28;20044;-76
2023/07/18 02:06:06;;;;;;;0.20;0.10;;;22.20;63.80;;;;;;5034363;28;20047;-76
2023/07/18 02:08:31;;;;;;;0.20;0.20;;;22.30;64.50;;;;;;5036096;28;20037;-76
2023/07/18 02:10:57;;;;;;;0.10;0.10;;;22.20;63.70;;;;;;5038023;28;20507;-76
2023/07/18 02:13:23;;;;;;;0.20;0.20;;;22.30;63.60;;;;;;5039267;28;20380;-76
2023/07/18 02:15:48;;;;;;;0.03;0.03;;;22.20;63.60;;;;;;5036724;28;20176;-76
2023/07/18 02:18:14;;;;;;;0.17;0.17;;;22.20;63.60;;;;;;5035903;28;20049;-76
2023/07/18 02:20:39;;;;;;;0.10;0.10;;;22.20;63.60;;;;;;5034585;28;20044;-76
2023/07/18 02:23:05;;;;;;;0.10;0.10;;;22.20;63.60;;;;;;5035131;28;20389;-76
2023/07/18 02:25:30;;;;;;;0.20;0.20;;;22.20;63.60;;;;;;5038347;28;20072;-76
2023/07/18 02:27:56;;;;;;;0.20;0.20;;;22.20;63.60;;;;;;5031104;28;20048;-76
2023/07/18 02:30:21;;;;;;;0.20;0.17;;;22.20;63.60;;;;;;5031503;28;20302;-76
2023/07/18 02:32:47;;;;;;;0.20;0.20;;;22.20;63.40;;;;;;5044950;28;20061;-76
2023/07/18 02:35:17;;;;;;;0.20;0.20;;;22.20;63.50;;;;;;5053247;28;20052;-76
2023/07/18 02:37:43;;;;;;;0.15;0.10;;;22.20;63.50;;;;;;5053856;28;20125;-77
2023/07/18 02:40:09;;;;;;;0.10;0.10;;;22.20;63.50;;;;;;5034516;28;20493;-77
2023/07/18 02:42:35;;;;;;;0.13;0.13;;;22.20;63.60;;;;;;5032924;28;20044;-76
2023/07/18 02:45:01;;;;;;;0.20;0.20;;;22.20;63.50;;;;;;5031043;28;20450;-76
2023/07/18 02:47:26;;;;;;;0.20;0.20;;;22.20;63.50;;;;;;5032980;28;20076;-76
2023/07/18 02:49:52;;;;;;;0.25;0.10;;;22.20;63.50;;;;;;5039643;28;20521;-76
2023/07/18 02:52:17;;;;;;;0.20;0.20;;;22.20;63.40;;;;;;5036207;28;20100;-76
2023/07/18 02:54:43;;;;;;;0.35;0.20;;;22.20;63.50;;;;;;5035801;28;20064;-76
2023/07/18 02:57:08;;;;;;;0.20;0.20;;;22.20;63.50;;;;;;5028781;28;20478;-76
2023/07/18 02:59:34;;;;;;;0.20;0.17;;;22.20;63.40;;;;;;5033723;28;20176;-76
2023/07/18 03:01:59;;;;;;;0.10;0.10;;;22.20;63.50;;;;;;5034771;28;26739;-76
2023/07/18 03:04:28;;;;;;;0.13;0.10;;;22.10;63.40;;;;;;5037845;28;20055;-76
2023/07/18 03:06:54;;;;;;;0.28;0.28;;;22.20;63.60;;;;;;5032856;28;20045;-76
2023/07/18 03:09:21;;;;;;;0.38;0.38;;;22.20;63.50;;;;;;5046202;28;20107;-76
2023/07/18 03:11:47;;;;;;;0.20;0.20;;;22.20;63.50;;;;;;5030871;28;20115;-76
2023/07/18 03:14:14;;;;;;;0.10;0.10;;;22.10;63.50;;;;;;5052030;28;20124;-76
2023/07/18 03:16:40;;;;;;;0.30;0.20;;;22.20;64.30;;;;;;5058926;28;20102;-76
2023/07/18 03:19:07;;;;;;;0.10;0.10;;;22.10;63.40;;;;;;5054352;28;20475;-76
2023/07/18 03:21:32;;;;;;;0.30;0.20;;;22.20;63.40;;;;;;5046014;28;20083;-76
2023/07/18 03:23:58;;;;;;;0.10;0.10;;;22.20;63.50;;;;;;5048316;28;20044;-76
2023/07/18 03:26:23;;;;;;;0.00;0.00;;;22.20;63.50;;;;;;5054464;28;20045;-76
2023/07/18 03:28:49;;;;;;;0.10;0.10;;;22.20;64.30;;;;;;5055073;28;20043;-76
2023/07/18 03:31:15;;;;;;;0.10;0.10;;;22.10;63.30;;;;;;5054505;28;20402;-76
2023/07/18 03:33:41;;;;;;;0.20;0.10;;;22.10;63.30;;;;;;5052421;28;20049;-76
2023/07/18 03:36:07;;;;;;;0.50;0.38;;;22.10;63.40;;;;;;5051830;28;20107;-76
2023/07/18 03:38:32;;;;;;;0.57;0.20;;;22.20;63.50;;;;;;5053461;28;20037;-76
2023/07/18 03:40:58;;;;;;;0.17;0.17;;;22.10;63.40;;;;;;5056954;28;20045;-76
2023/07/18 03:43:24;;;;;;;0.10;0.10;;;22.10;63.40;;;;;;5056722;28;20045;-76
2023/07/18 03:45:51;;;;;;;0.10;0.10;;;22.10;63.30;;;;;;5049904;28;20553;-76
2023/07/18 03:48:16;;;;;;;0.05;0.05;;;22.10;63.40;;;;;;5051540;28;20052;-76
2023/07/18 03:50:42;;;;;;;0.10;0.10;;;22.10;63.40;;;;;;5055310;28;20423;-76
2023/07/18 03:53:08;;;;;;;0.32;0.22;;;22.10;63.50;;;;;;5055581;28;20048;-76
2023/07/18 03:55:33;;;;;;;0.17;0.10;;;22.10;63.40;;;;;;5044226;28;20095;-76
2023/07/18 03:57:59;;;;;;;0.10;0.10;;;22.10;63.50;;;;;;5052511;28;20041;-76
2023/07/18 04:00:25;;;;;;;0.10;0.10;;;22.10;63.40;;;;;;5054776;28;20127;-76
2023/07/18 04:02:51;;;;;;;0.10;0.10;;;22.10;63.60;;;;;;5051960;28;20041;-76
2023/07/18 04:05:17;;;;;;;0.20;0.20;;;22.10;63.50;;;;;;5049384;28;20038;-76
2023/07/18 04:07:44;;;;;;;0.13;0.10;;;22.10;63.40;;;;;;5055073;28;20067;-76
2023/07/18 04:10:11;;;;;;;0.20;0.20;;;22.10;63.50;;;;;;5050930;28;20041;-76
2023/07/18 04:12:38;;;;;;;0.30;0.30;;;22.10;64.40;;;;;;5053012;28;20064;-76
2023/07/18 04:15:04;;;;;;;0.20;0.20;;;22.10;63.50;;;;;;5050941;28;20061;-76
2023/07/18 04:17:30;;;;;;;0.20;0.20;;;22.10;63.50;;;;;;5055011;28;20093;-76
2023/07/18 04:19:57;;;;;;;0.10;0.10;;;22.10;63.50;;;;;;5056762;28;20074;-76
2023/07/18 04:22:23;;;;;;;0.17;0.17;;;22.10;63.50;;;;;;5055399;28;20052;-76
2023/07/18 04:24:48;;;;;;;0.17;0.10;;;22.10;63.40;;;;;;5051094;28;20086;-76
2023/07/18 04:27:15;;;;;;;0.20;0.20;;;22.10;63.40;;;;;;5048647;28;20045;-76
2023/07/18 04:29:40;;;;;;;0.10;0.10;;;22.10;63.50;;;;;;5032990;28;20038;-76
2023/07/18 04:32:06;;;;;;;0.10;0.10;;;22.10;63.40;;;;;;5030150;28;20049;-76
2023/07/18 04:34:32;;;;;;;0.00;0.00;;;22.10;63.40;;;;;;5033450;28;20200;-76
2023/07/18 04:36:57;;;;;;;0.20;0.20;;;22.00;63.50;;;;;;5032643;28;20574;-76
2023/07/18 04:39:23;;;;;;;0.10;0.10;;;22.00;63.40;;;;;;5028321;28;20544;-77
2023/07/18 04:41:49;;;;;;;0.17;0.17;;;22.00;63.50;;;;;;5028172;28;20056;-76
2023/07/18 04:44:15;;;;;;;0.10;0.10;;;22.00;63.50;;;;;;5032593;28;20096;-76
2023/07/18 04:46:41;;;;;;;0.15;0.15;;;22.10;63.50;;;;;;5037899;28;20091;-76
2023/07/18 04:49:06;;;;;;;0.20;0.20;;;22.00;63.40;;;;;;5029987;28;20400;-76
2023/07/18 04:51:32;;;;;;;0.10;0.10;;;22.10;63.50;;;;;;5030997;28;20044;-76
2023/07/18 04:53:57;;;;;;;0.20;0.20;;;22.10;63.50;;;;;;5031523;28;20041;-76
2023/07/18 04:56:23;;;;;;;0.10;0.10;;;22.00;63.40;;;;;;5034224;28;20040;-76
2023/07/18 04:58:49;;;;;;;0.20;0.20;;;22.00;63.50;;;;;;5036826;28;20037;-76
2023/07/18 05:01:14;;;;;;;0.10;0.10;;;22.00;63.50;;;;;;5039441;28;20047;-77
2023/07/18 05:03:40;;;;;;;0.10;0.10;;;22.00;63.50;;;;;;5032841;28;20118;-76
2023/07/18 05:06:05;;;;;;;0.10;0.10;;;22.00;63.60;;;;;;5038194;28;20584;-76
2023/07/18 05:08:31;;;;;;;0.10;0.10;;;22.00;63.60;;;;;;5037412;28;20068;-76
2023/07/18 05:11:03;;;;;;;0.20;0.20;;;22.00;63.60;;;;;;5039479;28;20044;-76
2023/07/18 05:13:28;;;;;;;0.20;0.20;;;22.00;63.50;;;;;;5032394;28;20049;-76
2023/07/18 05:15:54;;;;;;;0.40;0.40;;;22.00;63.60;;;;;;5035357;28;20033;-76
2023/07/18 05:18:20;;;;;;;0.10;0.10;;;22.00;63.50;;;;;;5035403;28;20048;-76
2023/07/18 05:20:45;;;;;;;0.10;0.10;;;22.00;63.50;;;;;;5037383;28;20043;-76
2023/07/18 05:23:11;;;;;;;0.13;0.13;;;22.00;63.50;;;;;;5035956;28;20045;-76
2023/07/18 05:25:37;;;;;;;0.20;0.17;;;22.00;63.50;;;;;;5038798;28;20069;-76
2023/07/18 05:28:02;;;;;;;0.82;0.20;;;22.00;63.50;;;;;;5038964;28;20043;-76
2023/07/18 05:30:28;;;;;;;0.28;0.20;;;22.00;63.50;;;;;;5034902;28;20481;-76
2023/07/18 05:32:53;;;;;;;0.10;0.10;;;22.00;63.50;;;;;;5034811;28;20526;-77
2023/07/18 05:35:19;;;;;;;0.93;0.20;;;22.00;63.60;;;;;;5027763;28;20060;-76
2023/07/18 05:37:44;;;;;;;0.20;0.15;;;22.00;63.40;;;;;;5037348;28;20032;-76
2023/07/18 05:40:10;;;;;;;0.30;0.10;;;22.00;63.40;;;;;;5033411;28;20128;-76
2023/07/18 05:42:39;;;;;;;0.10;0.10;;;22.00;63.40;;;;;;5037445;28;20513;-76
2023/07/18 05:45:07;;;;;;;0.15;0.10;;;22.00;64.20;;;;;;5033472;28;20888;-76
2023/07/18 05:47:32;;;;;;;0.47;0.20;;;22.00;63.50;;;;;;5038432;28;20096;-76
2023/07/18 05:49:58;;;;;;;0.10;0.10;;;22.00;63.50;;;;;;5036467;28;20057;-76
2023/07/18 05:52:24;;;;;;;0.20;0.20;;;22.00;63.50;;;;;;5032432;28;20099;-76
2023/07/18 05:54:49;;;;;;;0.52;0.08;;;22.00;63.40;;;;;;5037763;28;20049;-76
2023/07/18 05:57:15;;;;;;;0.10;0.10;;;22.00;63.30;;;;;;5037505;28;20569;-76
2023/07/18 05:59:41;;;;;;;0.20;0.20;;;22.00;63.40;;;;;;5034948;28;20048;-76
2023/07/18 06:02:07;;;;;;;0.30;0.20;;;22.00;63.40;;;;;;5035853;28;20077;-76
2023/07/18 06:04:34;;;;;;;0.10;0.10;;;22.00;63.40;;;;;;5038387;28;20037;-76
2023/07/18 06:06:59;;;;;;;0.25;0.17;;;22.00;63.50;;;;;;5036096;28;20511;-76
2023/07/18 06:09:25;;;;;;;0.10;0.10;;;22.00;63.50;;;;;;5033568;28;20072;-76
2023/07/18 06:11:50;;;;;;;0.17;0.17;;;22.00;63.80;;;;;;5034059;28;20482;-76
2023/07/18 06:14:16;;;;;;;0.13;0.13;;;22.00;63.40;;;;;;5037361;28;20037;-76
2023/07/18 06:16:41;;;;;;;0.25;0.10;;;22.00;63.40;;;;;;5035337;28;20055;-76
2023/07/18 06:19:07;;;;;;;0.10;0.10;;;22.00;63.40;;;;;;5029912;28;20499;-76
2023/07/18 06:21:32;;;;;;;0.10;0.10;;;22.00;63.40;;;;;;5036220;28;20065;-76
2023/07/18 06:23:58;;;;;;;0.20;0.10;;;22.00;63.50;;;;;;5035513;28;20096;-76
2023/07/18 06:26:24;;;;;;;0.13;0.10;;;22.00;63.50;;;;;;5035892;28;20106;-76
2023/07/18 06:28:49;;;;;;;0.10;0.10;;;22.00;63.50;;;;;;5039932;28;20498;-76
2023/07/18 06:31:15;;;;;;;0.10;0.10;;;22.00;63.50;;;;;;5031571;28;20053;-76
2023/07/18 06:33:41;;;;;;;0.10;0.10;;;22.00;63.50;;;;;;5033759;28;20415;-76
2023/07/18 06:36:07;;;;;;;0.38;0.13;;;22.00;63.50;;;;;;5036725;28;20083;-76
2023/07/18 06:38:32;;;;;;;0.73;0.30;;;21.90;63.40;;;;;;5032967;28;20049;-76
2023/07/18 06:40:58;;;;;;;0.30;0.20;;;22.00;63.60;;;;;;5036792;28;20079;-76
2023/07/18 06:43:24;;;;;;;0.10;0.10;;;22.00;63.60;;;;;;5033338;28;20061;-76
2023/07/18 06:45:50;;;;;;;0.17;0.17;;;22.00;63.60;;;;;;5034109;28;20037;-76
2023/07/18 06:48:15;;;;;;;0.32;0.20;;;22.00;63.50;;;;;;5034619;28;20044;-76
2023/07/18 06:50:47;;;;;;;0.10;0.10;;;22.00;63.60;;;;;;5034961;28;20053;-76
2023/07/18 06:53:17;;;;;;;0.20;0.20;;;22.00;63.60;;;;;;5035574;28;20048;-76
2023/07/18 06:55:43;;;;;;;0.38;0.20;;;22.00;63.60;;;;;;5027958;28;20049;-76
2023/07/18 06:58:09;;;;;;;0.20;0.20;;;21.90;63.50;;;;;;5035728;28;20509;-76
2023/07/18 07:00:35;;;;;;;0.10;0.10;;;22.00;63.60;;;;;;5032706;28;20128;-76
2023/07/18 07:03:01;;;;;;;0.10;0.10;;;22.00;63.60;;;;;;5034462;28;20044;-76
2023/07/18 07:05:26;;;;;;;0.10;0.10;;;22.00;64.40;;;;;;5030627;28;20037;-76
2023/07/18 07:07:53;;;;;;;0.20;0.20;;;22.00;63.60;;;;;;5035271;28;21440;-76
2023/07/18 07:10:18;;;;;;;0.20;0.20;;;22.00;63.60;;;;;;5036475;28;20120;-76
2023/07/18 07:12:44;;;;;;;0.10;0.10;;;22.00;63.60;;;;;;5031673;28;20116;-76
2023/07/18 07:15:10;;;;;;;0.20;0.20;;;22.00;64.30;;;;;;5027900;28;20065;-76
2023/07/18 07:17:36;;;;;;;0.20;0.20;;;22.00;63.50;;;;;;5014780;28;20056;-76
2023/07/18 07:20:01;;;;;;;0.20;0.20;;;22.00;63.60;;;;;;5033617;28;21156;-76
2023/07/18 07:22:27;;;;;;;0.20;0.20;;;22.00;63.60;;;;;;5034681;28;20055;-76
2023/07/18 07:24:53;;;;;;;0.10;0.08;;;22.00;63.50;;;;;;5020628;28;20499;-76
2023/07/18 07:27:19;;;;;;;0.10;0.10;;;22.00;64.40;;;;;;5035860;28;20108;-76
2023/07/18 07:29:45;;;;;;;0.30;0.10;;;22.10;63.60;;;;;;5035061;28;20546;-76
2023/07/18 07:32:10;;;;;;;0.22;0.10;;;22.00;63.40;;;;;;5036111;28;20041;-76
2023/07/18 07:34:36;;;;;;;0.20;0.20;;;22.00;63.40;;;;;;5039232;28;20395;-76
2023/07/18 07:37:01;;;;;;;0.35;0.10;;;22.10;63.60;;;;;;5035213;28;20120;-76
2023/07/18 07:39:27;;;;;;;0.40;0.17;;;22.00;63.50;;;;;;5035989;28;20041;-76
2023/07/18 07:41:52;;;;;;;0.10;0.10;;;22.00;63.40;;;;;;5031566;28;20060;-76
2023/07/18 07:44:18;;;;;;;0.22;0.10;;;22.00;63.50;;;;;;5035107;28;20033;-76
2023/07/18 07:46:43;;;;;;;0.20;0.20;;;22.00;63.40;;;;;;5037723;28;20071;-76
2023/07/18 07:49:11;;;;;;;0.38;0.10;;;22.10;63.40;;;;;;5036654;28;20044;-75
2023/07/18 07:51:37;;;;;;;0.15;0.15;;;22.10;63.40;;;;;;5031433;28;20765;-76
2023/07/18 07:54:02;;;;;;;0.10;0.10;;;22.10;63.30;;;;;;5031133;28;20558;-76
2023/07/18 07:56:28;;;;;;;0.00;0.00;;;22.10;63.20;;;;;;5036132;28;20187;-76
2023/07/18 07:58:53;;;;;;;0.25;0.10;;;22.10;63.20;;;;;;5032802;28;20079;-76
2023/07/18 08:01:20;;;;;;;0.10;0.10;;;22.10;63.20;;;;;;5034839;28;20053;-76
2023/07/18 08:03:45;;;;;;;0.10;0.10;;;22.10;63.20;;;;;;5033283;28;20120;-76
2023/07/18 08:06:11;;;;;;;0.10;0.10;;;22.10;63.20;;;;;;5033045;28;20128;-76
2023/07/18 08:08:36;;;;;;;0.15;0.00;;;22.10;64.00;;;;;;5033140;28;20045;-76
2023/07/18 08:11:03;;;;;;;0.10;0.10;;;22.10;63.20;;;;;;5031216;28;20056;-75
2023/07/18 08:13:29;;;;;;;0.10;0.10;;;22.10;63.20;;;;;;5036917;28;20517;-76
2023/07/18 08:15:55;;;;;;;0.17;0.17;;;22.10;63.20;;;;;;5029563;28;20057;-76
2023/07/18 08:18:21;;;;;;;0.20;0.10;;;22.10;63.20;;;;;;5034968;28;20037;-76
2023/07/18 08:20:47;;;;;;;0.30;0.20;;;22.10;63.20;;;;;;5031278;28;20107;-76
2023/07/18 08:23:13;;;;;;;0.10;0.10;;;22.10;63.20;;;;;;5030575;28;20046;-76
2023/07/18 08:25:38;;;;;;;0.20;0.13;;;22.10;63.20;;;;;;5021543;28;20049;-76
2023/07/18 08:28:04;;;;;;;0.20;0.17;;;22.20;63.20;;;;;;5033803;28;20410;-76
2023/07/18 08:30:30;;;;;;;0.20;0.20;;;22.20;63.20;;;;;;5028026;28;20494;-76
2023/07/18 08:32:56;;;;;;;0.10;0.10;;;22.20;63.10;;;;;;5036920;28;20080;-76
2023/07/18 08:35:22;;;;;;;0.30;0.30;;;22.30;63.20;;;;;;5035702;28;20038;-76
2023/07/18 08:37:48;;;;;;;0.20;0.20;;;22.30;63.10;;;;;;5042725;28;20044;-76
2023/07/18 08:40:14;;;;;;;0.30;0.20;;;22.30;62.90;;;;;;5037789;28;20087;-76
2023/07/18 08:42:39;;;;;;;0.43;0.38;;;22.30;62.90;;;;;;5060840;28;20060;-76
2023/07/18 08:45:07;;;;;;;0.30;0.30;;;22.30;62.90;;;;;;5048323;28;20057;-76
2023/07/18 08:47:32;;;;;;;0.10;0.10;;;22.30;62.90;;;;;;5055746;28;20580;-76
2023/07/18 08:49:58;;;;;;;0.20;0.10;;;22.30;62.90;;;;;;5039823;28;20045;-76
2023/07/18 08:52:24;;;;;;;0.10;0.10;;;22.30;62.90;;;;;;5071803;28;20045;-76
2023/07/18 08:54:50;;;;;;;0.35;0.35;;;22.40;63.00;;;;;;5036552;28;20455;-76
2023/07/18 08:57:16;;;;;;;0.20;0.20;;;22.40;63.10;;;;;;5054232;28;20037;-76
2023/07/18 08:59:41;;;;;;;0.20;0.20;;;22.40;63.00;;;;;;5034535;28;20111;-76
2023/07/18 09:02:08;;;;;;;0.32;0.20;;;22.40;62.80;;;;;;5050055;28;20041;-76
2023/07/18 09:04:33;;;;;;;0.20;0.20;;;22.40;62.90;;;;;;5037279;28;20446;-76
2023/07/18 09:07:00;;;;;;;0.10;0.10;;;22.40;62.70;;;;;;5034263;28;20086;-76
2023/07/18 09:09:26;;;;;;;0.35;0.30;;;22.40;62.60;;;;;;5033030;28;20033;-76
2023/07/18 09:11:58;;;;;;;0.30;0.30;;;22.40;62.60;;;;;;5037638;28;20419;-76
2023/07/18 09:14:33;;;;;;;0.22;0.22;;;22.40;62.60;;;;;;5033430;28;20087;-76
2023/07/18 09:17:01;;;;;;;0.38;0.38;;;22.50;62.70;;;;;;5036385;28;20053;-76
2023/07/18 09:19:35;;;;;;;0.20;0.20;;;22.40;63.40;;;;;;5035763;28;20117;-76
2023/07/18 09:22:01;;;;;;;0.30;0.30;;;22.50;62.60;;;;;;5032911;28;20506;-76
2023/07/18 09:24:31;;;;;;;0.40;0.20;;;22.50;62.50;;;;;;5033868;28;20135;-76
2023/07/18 09:26:57;;;;;;;0.20;0.20;;;22.50;62.40;;;;;;5032317;28;20049;-76
2023/07/18 09:29:24;;;;;;;0.20;0.17;;;22.50;62.40;;;;;;5035281;28;20049;-76
2023/07/18 09:31:50;;;;;;;0.20;0.20;;;22.50;62.30;;;;;;5039305;28;20075;-76
2023/07/18 09:34:16;;;;;;;0.20;0.20;;;22.50;62.10;;;;;;5034467;28;20057;-76
2023/07/18 09:36:41;;;;;;;0.30;0.30;;;22.50;62.10;;;;;;5033650;28;20124;-76
2023/07/18 09:39:07;;;;;;;0.20;0.20;;;22.60;62.30;;;;;;5032941;28;20037;-76
2023/07/18 09:41:34;;;;;;;0.28;0.28;;;22.60;62.30;;;;;;5034380;28;20042;-76
2023/07/18 09:43:59;;;;;;;0.20;0.20;;;22.60;62.30;;;;;;5035841;28;20051;-76
2023/07/18 09:46:25;;;;;;;0.35;0.32;;;22.60;62.10;;;;;;5038889;28;20403;-76
2023/07/18 09:48:50;;;;;;;0.30;0.30;;;22.60;62.20;;;;;;5034413;28;20073;-76
2023/07/18 09:51:20;;;;;;;0.20;0.20;;;22.60;62.10;;;;;;5037257;28;20037;-76
2023/07/18 09:53:46;;;;;;;0.25;0.25;;;22.60;62.10;;;;;;5033555;28;20057;-76
2023/07/18 09:56:14;;;;;;;0.40;0.40;;;22.60;62.10;;;;;;5036577;28;20053;-76
2023/07/18 09:58:39;;;;;;;0.30;0.30;;;22.60;61.90;;;;;;5039232;28;20049;-76
2023/07/18 10:01:08;;;;;;;0.20;0.20;;;22.60;62.00;;;;;;5035254;28;20425;-76
2023/07/18 10:03:33;;;;;;;0.20;0.20;;;22.60;62.10;;;;;;5063827;28;20044;-76
2023/07/18 10:05:59;;;;;;;0.40;0.40;;;22.60;62.10;;;;;;5068378;28;20503;-76
2023/07/18 10:08:24;;;;;;;0.30;0.30;;;22.60;62.10;;;;;;5066147;28;20410;-76
2023/07/18 10:11:07;;;;;;;0.40;0.40;;;22.60;62.10;;;;;;5035455;28;20112;-76
2023/07/18 10:13:43;;;;;;;0.20;0.20;;;22.60;62.10;;;;;;5038312;28;20047;-76
2023/07/18 10:16:12;;;;;;;0.28;0.28;;;22.60;62.00;;;;;;5034900;28;20518;-76
2023/07/18 10:18:47;;;;;;;0.30;0.30;;;22.70;62.00;;;;;;5035080;28;20071;-76
2023/07/18 10:21:33;;;;;;;0.20;0.20;;;22.70;62.00;;;;;;5032457;28;20041;-76
2023/07/18 10:24:24;;;;;;;0.20;0.20;;;22.70;61.90;;;;;;5029374;28;20506;-76
2023/07/18 10:27:00;;;;;;;0.30;0.30;;;22.70;61.90;;;;;;5045937;28;20069;-76
2023/07/18 10:29:31;;;;;;;0.30;0.30;;;22.70;61.90;;;;;;5039368;28;20038;-76
2023/07/18 10:31:57;;;;;;;0.30;0.30;;;22.70;61.90;;;;;;5050792;28;20076;-76
2023/07/18 10:34:22;;;;;;;0.60;0.50;;;22.70;61.90;;;;;;5051498;28;20045;-76
2023/07/18 10:37:00;;;;;;;0.20;0.20;;;22.70;61.80;;;;;;5035289;28;20128;-76
2023/07/18 10:39:38;;;;;;;0.30;0.30;;;22.80;61.90;;;;;;5033098;28;20079;-76
2023/07/18 10:42:20;;;;;;;0.25;0.25;;;22.80;61.80;;;;;;5036461;28;20041;-76
2023/07/18 10:44:47;;;;;;;0.20;0.20;;;22.80;61.70;;;;;;5034976;28;20178;-76
2023/07/18 10:47:16;;;;;;;0.20;0.20;;;22.80;61.70;;;;;;5035339;28;20504;-76
2023/07/18 10:49:42;;;;;;;0.30;0.30;;;22.80;61.70;;;;;;5036955;28;20124;-76
2023/07/18 10:52:08;;;;;;;0.30;0.30;;;22.80;61.70;;;;;;5035127;28;20056;-76
2023/07/18 10:54:33;;;;;;;0.30;0.30;;;22.80;61.80;;;;;;5032997;28;20048;-76
2023/07/18 10:56:59;;;;;;;0.20;0.20;;;22.80;61.80;;;;;;5033157;28;20052;-76
2023/07/18 10:59:25;;;;;;;0.30;0.30;;;22.80;61.90;;;;;;5032724;28;20130;-76
2023/07/18 11:01:50;;;;;;;0.30;0.30;;;22.80;61.90;;;;;;5031644;28;20041;-76
2023/07/18 11:04:16;;;;;;;0.55;0.50;;;22.80;61.70;;;;;;5028425;28;20109;-77
2023/07/18 11:06:54;;;;;;;0.32;0.32;;;22.80;61.80;;;;;;5036120;28;20498;-76
2023/07/18 11:09:19;;;;;;;0.30;0.30;;;22.80;61.80;;;;;;5031898;28;20033;-76
2023/07/18 11:11:45;;;;;;;0.30;0.30;;;22.90;61.80;;;;;;5036314;28;20074;-76
2023/07/18 11:14:10;;;;;;;0.50;0.50;;;22.90;61.70;;;;;;5052918;28;20125;-76
2023/07/18 11:16:36;;;;;;;0.20;0.20;;;22.90;61.70;;;;;;5037669;28;20048;-76
2023/07/18 11:19:04;;;;;;;0.30;0.30;;;22.90;61.70;;;;;;5049758;28;20135;-76
2023/07/18 11:21:30;;;;;;;0.63;0.63;;;22.90;61.90;;;;;;5033674;28;20076;-76
2023/07/18 11:23:56;;;;;;;0.25;0.25;;;22.90;61.80;;;;;;5033321;28;20084;-76
2023/07/18 11:26:21;;;;;;;0.30;0.30;;;22.90;61.70;;;;;;5052405;28;20038;-76
2023/07/18 11:28:52;;;;;;;0.30;0.30;;;22.90;61.80;;;;;;5039620;28;20052;-76
2023/07/18 11:31:30;;;;;;;0.30;0.30;;;22.90;61.70;;;;;;5033860;28;20040;-78
2023/07/18 11:33:59;;;;;;;0.57;0.30;;;22.90;61.70;;;;;;5027179;28;20057;-76
2023/07/18 11:36:35;;;;;;;0.40;0.40;;;22.90;61.80;;;;;;5015557;28;20418;-76
2023/07/18 11:39:01;;;;;;;0.38;0.30;;;22.90;61.80;;;;;;5037364;28;20046;-76
2023/07/18 11:41:33;;;;;;;0.30;0.30;;;22.90;62.50;;;;;;5051667;28;20092;-76
2023/07/18 11:44:01;;;;;;;0.30;0.30;;;22.90;61.90;;;;;;5044837;28;20052;-76
2023/07/18 11:46:43;;;;;;;0.20;0.20;;;23.00;61.80;;;;;;5041445;28;20559;-76
2023/07/18 11:49:09;;;;;;;0.20;0.20;;;22.90;61.90;;;;;;5033930;28;20096;-76
2023/07/18 11:51:35;;;;;;;0.30;0.30;;;22.90;61.90;;;;;;5029860;28;20044;-76
2023/07/18 11:54:02;;;;;;;0.20;0.20;;;23.00;62.00;;;;;;5032628;28;20053;-76
2023/07/18 11:56:29;;;;;;;0.30;0.30;;;23.00;62.00;;;;;;5030931;28;20457;-76
2023/07/18 11:58:54;;;;;;;0.40;0.40;;;23.00;62.00;;;;;;5041526;28;20048;-76
2023/07/18 12:01:20;;;;;;;0.38;0.30;;;23.00;62.00;;;;;;5039358;28;20410;-76
2023/07/18 12:03:46;;;;;;;0.20;0.20;;;22.90;61.90;;;;;;5030835;28;20049;-76
2023/07/18 12:06:11;;;;;;;0.20;0.20;;;23.00;62.00;;;;;;5020546;28;20537;-76
2023/07/18 12:08:37;;;;;;;0.38;0.38;;;23.00;62.00;;;;;;4678724;28;10000380;-75
2023/07/18 12:11:09;;;;;;;0.40;0.40;;;22.90;61.80;;;;;;5051251;28;20054;-76
2023/07/18 12:13:37;;;;;;;0.40;0.40;;;23.00;62.00;;;;;;5028840;28;20045;-76
2023/07/18 12:16:03;;;;;;;0.40;0.40;;;23.00;62.00;;;;;;5030773;28;20548;-76
2023/07/18 12:18:31;;;;;;;0.20;0.20;;;23.00;62.00;;;;;;4752033;28;10000751;-76
2023/07/18 12:20:57;;;;;;;0.20;0.20;;;22.90;62.00;;;;;;5030944;28;20234;-76
2023/07/18 12:23:23;;;;;;;0.30;0.30;;;23.00;62.00;;;;;;5051342;28;20112;-77
2023/07/18 12:25:49;;;;;;;0.40;0.40;;;23.00;62.00;;;;;;5041468;28;20037;-76
2023/07/18 12:28:15;;;;;;;0.30;0.30;;;23.00;61.90;;;;;;5037660;28;20064;-76
2023/07/18 12:30:41;;;;;;;0.50;0.50;;;23.00;62.00;;;;;;5036666;28;20051;-76
2023/07/18 12:33:06;;;;;;;0.30;0.30;;;23.00;62.00;;;;;;5035604;28;20621;-76
2023/07/18 12:35:32;;;;;;;0.57;0.50;;;23.00;62.00;;;;;;5036257;28;20556;-76
2023/07/18 12:37:57;;;;;;;0.30;0.30;;;23.00;62.00;;;;;;5037767;28;20090;-76
2023/07/18 12:40:23;;;;;;;0.40;0.40;;;23.00;62.70;;;;;;5040382;28;20034;-76
2023/07/18 12:42:49;;;;;;;0.20;0.20;;;23.00;61.90;;;;;;5032402;28;20049;-76